Time;durP1;ratioP1;P1;durP2;ratioP2;P2;SDS_P1;SDS_P2;PMS_P1;PMS_P2;Temp;Humidity;BMP_temperature;BMP_pressure;BME280_temperature;BME280_humidity;BME280_pressure;Samples;Min_cycle;Max_cycle;Signal;HPM_P1;HPM_P2
2022/04/14 00:00:31;;;;;;;27.20;11.68;;;10.20;99.90;;;;;;4897745;29;20060;-86
2022/04/14 00:02:56;;;;;;;25.58;11.85;;;10.20;99.90;;;;;;4896457;29;20035;-86
2022/04/14 00:05:22;;;;;;;28.88;13.00;;;10.10;99.90;;;;;;4896602;29;20029;-86
2022/04/14 00:07:48;;;;;;;27.25;11.80;;;10.20;99.90;;;;;;4896195;29;20034;-86
2022/04/14 00:10:15;;;;;;;24.75;12.35;;;10.20;99.90;;;;;;4896596;29;20416;-86
2022/04/14 00:12:42;;;;;;;25.25;13.02;;;10.10;99.90;;;;;;4897350;29;20035;-86
2022/04/14 00:15:10;;;;;;;27.23;12.85;;;10.10;99.90;;;;;;4897743;29;20400;-86
2022/04/14 00:17:36;;;;;;;20.15;11.77;;;10.20;99.90;;;;;;4897840;29;20047;-86
2022/04/14 00:20:06;;;;;;;23.60;12.15;;;10.10;99.90;;;;;;4897977;29;20485;-86
2022/04/14 00:22:32;;;;;;;28.27;12.32;;;10.20;99.90;;;;;;4897629;29;20032;-86
2022/04/14 00:24:57;;;;;;;25.00;12.18;;;10.20;99.90;;;;;;4897895;29;20028;-86
2022/04/14 00:27:23;;;;;;;28.63;11.70;;;10.10;99.90;;;;;;4898126;29;20039;-86
2022/04/14 00:29:50;;;;;;;20.67;11.70;;;10.10;99.90;;;;;;4901706;29;20437;-86
2022/04/14 00:32:16;;;;;;;24.20;12.77;;;10.00;99.90;;;;;;4899675;29;20072;-85
2022/04/14 00:34:42;;;;;;;22.30;11.52;;;10.10;99.90;;;;;;4897159;29;20500;-86
2022/04/14 00:37:09;;;;;;;27.73;12.57;;;10.10;99.90;;;;;;4899066;29;20119;-86
2022/04/14 00:39:35;;;;;;;24.17;12.85;;;10.20;99.90;;;;;;4899956;29;20032;-86
2022/04/14 00:42:07;;;;;;;24.90;12.27;;;10.20;99.90;;;;;;4901589;29;20116;-86
2022/04/14 00:44:33;;;;;;;26.83;14.70;;;10.20;99.90;;;;;;4901467;29;20108;-86
2022/04/14 00:46:59;;;;;;;26.33;14.30;;;10.30;99.90;;;;;;4900127;29;20537;-86
2022/04/14 00:49:24;;;;;;;27.38;14.00;;;10.30;99.90;;;;;;4900222;29;20525;-86
2022/04/14 00:51:50;;;;;;;27.23;14.20;;;10.30;99.90;;;;;;4900100;29;20044;-86
2022/04/14 00:54:17;;;;;;;30.65;14.50;;;10.30;99.90;;;;;;4899896;29;20438;-86
2022/04/14 00:56:42;;;;;;;30.15;14.95;;;10.30;99.90;;;;;;4901037;29;20029;-86
2022/04/14 00:59:08;;;;;;;30.83;13.77;;;10.30;99.90;;;;;;4901158;29;20508;-86
2022/04/14 01:01:34;;;;;;;25.00;14.05;;;10.30;99.90;;;;;;4899999;29;20029;-87
2022/04/14 01:04:02;;;;;;;23.30;13.32;;;10.40;99.90;;;;;;4900078;29;20552;-86
2022/04/14 01:06:28;;;;;;;28.02;14.57;;;10.40;99.90;;;;;;4899980;29;20063;-86
2022/04/14 01:11:40;;;;;;;28.83;13.80;;;10.30;99.90;;;;;;4901303;29;20095;-86
2022/04/14 01:14:06;;;;;;;34.05;15.18;;;10.40;99.90;;;;;;4899840;29;20025;-86
2022/04/14 01:16:32;;;;;;;127.40;17.23;;;10.50;99.90;;;;;;4899721;29;20107;-86
2022/04/14 01:18:58;;;;;;;119.43;16.90;;;10.40;99.90;;;;;;4899577;29;20033;-86
2022/04/14 01:21:30;;;;;;;82.40;15.98;;;10.40;99.90;;;;;;4900886;29;20036;-86
2022/04/14 01:23:55;;;;;;;153.93;16.30;;;10.50;99.90;;;;;;4900606;29;20035;-86
2022/04/14 01:26:40;;;;;;;55.58;16.73;;;10.40;99.90;;;;;;4900678;29;20025;-86
2022/04/14 01:29:06;;;;;;;110.93;13.65;;;10.40;99.90;;;;;;4900768;29;20031;-86
2022/04/14 01:31:32;;;;;;;29.27;13.60;;;10.30;99.90;;;;;;4899148;29;20049;-86
2022/04/14 01:33:57;;;;;;;45.53;14.73;;;10.50;99.90;;;;;;4899254;29;20033;-86
2022/04/14 01:36:23;;;;;;;55.35;14.65;;;10.50;99.90;;;;;;4899402;29;20028;-86
2022/04/14 01:38:49;;;;;;;55.00;12.73;;;10.50;99.90;;;;;;4898837;29;20043;-86
2022/04/14 01:41:15;;;;;;;55.88;14.38;;;10.40;99.90;;;;;;4899186;29;20033;-86
2022/04/14 01:43:40;;;;;;;60.88;13.80;;;10.40;99.90;;;;;;4898974;29;20482;-86
2022/04/14 01:46:08;;;;;;;58.95;12.80;;;10.40;99.90;;;;;;4899007;29;20024;-86
2022/04/14 01:48:35;;;;;;;51.67;11.90;;;10.20;99.90;;;;;;4898853;29;20028;-86
2022/04/14 01:51:00;;;;;;;26.27;11.00;;;10.30;99.90;;;;;;4898751;29;20567;-86
2022/04/14 01:53:26;;;;;;;27.20;10.30;;;10.20;99.90;;;;;;4900148;29;20055;-86
2022/04/14 01:55:52;;;;;;;25.02;9.88;;;10.10;99.90;;;;;;4900396;29;20025;-87
2022/04/14 01:58:17;;;;;;;59.75;10.25;;;10.10;99.90;;;;;;4899151;29;20051;-87
2022/04/14 02:00:43;;;;;;;47.33;11.05;;;10.10;99.90;;;;;;4900109;29;20091;-86
2022/04/14 02:03:09;;;;;;;43.85;10.85;;;10.10;99.90;;;;;;4898526;29;20393;-86
2022/04/14 02:05:35;;;;;;;51.97;11.27;;;10.10;99.90;;;;;;4898569;29;20120;-86
2022/04/14 02:08:01;;;;;;;42.70;11.32;;;10.00;99.90;;;;;;4898616;29;20073;-86
2022/04/14 02:10:26;;;;;;;42.33;9.93;;;10.00;99.90;;;;;;4898631;29;20051;-86
2022/04/14 02:12:52;;;;;;;57.55;11.35;;;10.00;99.90;;;;;;4898602;29;20055;-86
2022/04/14 02:15:18;;;;;;;54.25;10.57;;;10.00;99.90;;;;;;4914071;29;20397;-86
2022/04/14 02:17:44;;;;;;;60.22;10.27;;;10.00;99.90;;;;;;4913859;29;20036;-86
2022/04/14 02:20:10;;;;;;;50.17;10.23;;;9.90;99.90;;;;;;4899635;29;20576;-86
2022/04/14 02:22:41;;;;;;;51.78;10.02;;;10.00;99.90;;;;;;4899813;29;20029;-86
2022/04/14 02:25:07;;;;;;;48.47;10.55;;;10.00;99.90;;;;;;4898157;29;20123;-86
2022/04/14 02:27:33;;;;;;;47.75;10.88;;;10.00;99.90;;;;;;4898461;29;20028;-86
2022/04/14 02:29:58;;;;;;;48.67;9.80;;;10.10;99.90;;;;;;4898132;29;20036;-86
2022/04/14 02:32:24;;;;;;;32.97;8.70;;;10.00;99.90;;;;;;4897454;29;20048;-85
2022/04/14 02:34:50;;;;;;;41.88;9.00;;;9.90;99.90;;;;;;4897292;29;20036;-86
2022/04/14 02:37:15;;;;;;;41.00;9.45;;;9.90;99.90;;;;;;4897942;29;20036;-86
2022/04/14 02:39:41;;;;;;;27.90;9.73;;;9.80;99.90;;;;;;4898203;29;20047;-86
2022/04/14 02:42:07;;;;;;;19.23;8.88;;;9.80;99.90;;;;;;4894682;29;20031;-86
2022/04/14 02:44:32;;;;;;;29.40;9.77;;;9.90;99.90;;;;;;4879395;29;20035;-86
2022/04/14 02:46:58;;;;;;;26.60;8.98;;;9.80;99.90;;;;;;4880440;29;20427;-86
2022/04/14 02:49:24;;;;;;;16.33;9.77;;;9.90;99.90;;;;;;4905155;29;20535;-86
2022/04/14 02:51:50;;;;;;;26.20;9.10;;;9.90;99.90;;;;;;4894584;29;20029;-86
2022/04/14 02:54:16;;;;;;;38.78;9.77;;;9.90;99.90;;;;;;4894731;29;20486;-85
2022/04/14 02:56:41;;;;;;;22.52;9.20;;;9.80;99.90;;;;;;4880345;29;20037;-85
2022/04/14 02:59:07;;;;;;;35.72;9.90;;;9.90;99.90;;;;;;4878762;29;20032;-85
2022/04/14 03:01:33;;;;;;;21.50;8.85;;;9.90;99.90;;;;;;4894058;29;20425;-85
2022/04/14 03:03:58;;;;;;;19.48;8.93;;;9.80;99.90;;;;;;4894384;29;20105;-85
2022/04/14 03:06:24;;;;;;;36.55;9.05;;;9.80;99.90;;;;;;4894442;29;20066;-85
2022/04/14 03:08:50;;;;;;;20.70;8.63;;;9.80;99.90;;;;;;4879984;29;20021;-85
2022/04/14 03:11:16;;;;;;;19.48;8.25;;;9.80;99.90;;;;;;4878843;29;20029;-85
2022/04/14 03:13:44;;;;;;;22.77;8.05;;;9.80;99.90;;;;;;4878735;29;20432;-85
2022/04/14 03:16:10;;;;;;;18.15;7.25;;;9.80;99.90;;;;;;4879919;29;20033;-85
2022/04/14 03:18:36;;;;;;;40.75;7.68;;;9.70;99.90;;;;;;4878983;29;20541;-85
2022/04/14 03:21:03;;;;;;;18.20;7.05;;;9.60;99.90;;;;;;4878576;29;20029;-85
2022/04/14 03:23:29;;;;;;;13.52;7.47;;;9.60;99.90;;;;;;4893795;29;20018;-86
2022/04/14 03:25:54;;;;;;;12.15;6.80;;;9.70;99.90;;;;;;4894225;29;20032;-87
2022/04/14 03:28:20;;;;;;;14.43;7.28;;;9.70;99.90;;;;;;4879668;29;20021;-84
2022/04/14 03:30:46;;;;;;;24.35;6.82;;;9.60;99.90;;;;;;4894713;29;20118;-84
2022/04/14 03:33:11;;;;;;;14.88;7.10;;;9.60;99.90;;;;;;4916046;29;20469;-84
2022/04/14 03:35:37;;;;;;;23.85;6.78;;;9.60;99.90;;;;;;4900334;29;20032;-84
2022/04/14 03:38:03;;;;;;;27.88;6.82;;;9.60;99.90;;;;;;4915753;29;20032;-84
2022/04/14 03:40:28;;;;;;;21.88;7.03;;;9.60;99.90;;;;;;4900119;29;20028;-84
2022/04/14 03:42:55;;;;;;;17.80;6.45;;;9.70;99.90;;;;;;4915582;29;20515;-85
2022/04/14 03:45:21;;;;;;;23.90;7.07;;;9.70;99.90;;;;;;4914996;29;20083;-86
2022/04/14 03:47:47;;;;;;;18.83;6.60;;;9.70;99.90;;;;;;4899980;29;20020;-85
2022/04/14 03:50:12;;;;;;;9.75;5.78;;;9.70;99.90;;;;;;4899777;29;20024;-84
2022/04/14 03:52:38;;;;;;;17.25;6.50;;;9.70;99.90;;;;;;4900001;29;20050;-85
2022/04/14 03:55:05;;;;;;;23.38;6.53;;;9.70;99.90;;;;;;4899474;29;20034;-86
2022/04/14 03:57:31;;;;;;;20.08;6.03;;;9.70;99.90;;;;;;4900044;29;20506;-87
2022/04/14 03:59:57;;;;;;;15.60;5.72;;;9.50;99.90;;;;;;4916654;29;20060;-87
2022/04/14 04:02:23;;;;;;;12.60;6.65;;;9.60;99.90;;;;;;4899118;29;20444;-87
2022/04/14 04:04:48;;;;;;;18.65;6.10;;;9.60;99.90;;;;;;4899721;29;20084;-86
2022/04/14 04:07:14;;;;;;;16.48;6.25;;;9.50;99.90;;;;;;4916714;29;20020;-87
2022/04/14 04:09:39;;;;;;;9.88;5.75;;;9.60;99.90;;;;;;4915422;29;20067;-87
2022/04/14 04:12:06;;;;;;;11.32;5.68;;;9.60;99.90;;;;;;4915335;29;20040;-87
2022/04/14 04:14:32;;;;;;;7.82;5.15;;;9.60;99.90;;;;;;4899540;29;20073;-86
2022/04/14 04:16:57;;;;;;;8.57;5.57;;;9.50;99.90;;;;;;4899279;29;20059;-84
2022/04/14 04:19:23;;;;;;;9.00;5.80;;;9.50;99.90;;;;;;4916507;29;20028;-84
2022/04/14 04:21:48;;;;;;;9.82;5.30;;;9.40;99.90;;;;;;4916666;29;20031;-84
2022/04/14 04:24:14;;;;;;;9.43;5.13;;;9.40;99.90;;;;;;4916184;29;20068;-86
2022/04/14 04:26:40;;;;;;;6.25;4.72;;;9.40;99.90;;;;;;4916113;29;20021;-85
2022/04/14 04:29:07;;;;;;;7.60;4.90;;;9.40;99.90;;;;;;4899021;29;20511;-86
2022/04/14 04:31:32;;;;;;;10.27;5.50;;;9.40;99.90;;;;;;4915504;29;20048;-83
2022/04/14 04:33:58;;;;;;;10.80;5.72;;;9.30;99.90;;;;;;4915759;29;20036;-83
2022/04/14 04:36:24;;;;;;;8.43;5.50;;;9.40;99.90;;;;;;4916304;29;20429;-83
2022/04/14 04:38:49;;;;;;;11.18;5.35;;;9.30;99.90;;;;;;4915344;29;20502;-82
2022/04/14 04:41:15;;;;;;;8.52;5.03;;;9.30;99.90;;;;;;4916178;29;20507;-79
2022/04/14 04:43:41;;;;;;;9.68;5.45;;;9.30;99.90;;;;;;4916192;29;20032;-89
2022/04/14 04:46:08;;;;;;;8.93;4.80;;;9.30;99.90;;;;;;4899151;29;20059;-88
2022/04/14 04:48:35;;;;;;;14.88;5.50;;;9.30;99.90;;;;;;4916441;29;20170;-88
2022/04/14 04:51:00;;;;;;;8.45;5.57;;;9.30;99.90;;;;;;4916031;29;20029;-85
2022/04/14 04:53:26;;;;;;;10.23;5.50;;;9.30;99.90;;;;;;4915923;29;20035;-87
2022/04/14 04:55:52;;;;;;;9.10;5.28;;;9.30;99.90;;;;;;4916126;29;20103;-84
2022/04/14 04:58:17;;;;;;;10.07;5.28;;;9.30;99.90;;;;;;4915536;29;20030;-86
2022/04/14 05:00:44;;;;;;;8.52;4.72;;;9.40;99.90;;;;;;4915776;29;20032;-74
2022/04/14 05:03:12;;;;;;;9.30;5.40;;;9.30;99.90;;;;;;4916274;29;20048;-89
2022/04/14 05:05:38;;;;;;;8.52;5.40;;;9.30;99.90;;;;;;4916028;29;20099;-81
2022/04/14 05:08:05;;;;;;;7.40;5.10;;;9.30;99.90;;;;;;4915856;29;20032;-81
2022/04/14 05:10:33;;;;;;;6.70;4.80;;;9.20;99.90;;;;;;4914445;29;20441;-81
2022/04/14 05:12:58;;;;;;;10.63;5.85;;;9.20;99.90;;;;;;4915349;29;20032;-80
2022/04/14 05:15:24;;;;;;;7.18;5.32;;;9.20;99.90;;;;;;4922041;29;20064;-81
2022/04/14 05:17:50;;;;;;;7.63;5.15;;;9.20;99.90;;;;;;4919967;29;20417;-81
2022/04/14 10:47:43;;;;;;;18.55;6.70;;;19.60;99.90;;;;;;6075054;23;20022;31
2022/04/14 10:50:24;;;;;;;15.82;7.18;;;19.50;99.90;;;;;;4915975;29;20145;-82
2022/04/14 10:53:05;;;;;;;16.88;5.13;;;19.40;99.90;;;;;;4916320;29;20043;-82
2022/04/14 10:55:35;;;;;;;16.30;4.90;;;19.70;99.90;;;;;;4917650;29;20028;-82
2022/04/14 10:58:01;;;;;;;13.73;5.38;;;19.80;99.90;;;;;;4917746;29;20088;-86
2022/04/14 11:00:37;;;;;;;12.68;4.80;;;19.60;99.90;;;;;;4917290;29;20072;-84
2022/04/14 11:03:05;;;;;;;17.35;4.72;;;19.60;99.90;;;;;;4917592;29;20036;-83
2022/04/14 11:05:45;;;;;;;26.00;5.80;;;19.70;99.30;;;;;;4917043;29;20043;-83
2022/04/14 11:08:21;;;;;;;17.52;6.95;;;19.90;99.20;;;;;;4917684;29;20075;-83
2022/04/14 11:10:53;;;;;;;20.52;7.63;;;19.90;99.20;;;;;;4917329;29;20111;-83
2022/04/14 11:13:19;;;;;;;21.10;7.80;;;19.80;98.70;;;;;;4917456;29;20864;-84
2022/04/14 11:15:45;;;;;;;21.30;7.82;;;20.30;99.00;;;;;;4915953;29;20028;-85
2022/04/14 11:18:10;;;;;;;24.33;9.00;;;20.10;98.60;;;;;;4900306;29;20071;-84
2022/04/14 11:20:37;;;;;;;16.45;6.38;;;20.20;99.30;;;;;;4900374;29;20028;-84
2022/04/14 11:23:08;;;;;;;29.33;7.32;;;20.50;98.10;;;;;;4900287;29;20400;-85
2022/04/14 11:25:43;;;;;;;21.83;7.07;;;20.50;97.40;;;;;;4916296;29;20040;-80
2022/04/14 11:28:30;;;;;;;19.30;7.32;;;20.40;97.60;;;;;;4916292;29;20036;-80
2022/04/14 11:30:58;;;;;;;16.65;6.57;;;20.30;96.90;;;;;;4913610;29;20032;-80
2022/04/14 11:33:28;;;;;;;11.25;5.07;;;20.40;97.00;;;;;;4915824;29;20028;-80
2022/04/14 11:36:05;;;;;;;18.52;5.15;;;20.20;95.60;;;;;;4914512;29;20079;-80
2022/04/14 11:39:05;;;;;;;15.63;6.05;;;20.10;95.60;;;;;;4917638;29;20408;-80
2022/04/14 11:41:39;;;;;;;14.23;5.07;;;20.30;95.30;;;;;;4883876;29;20040;-80
2022/04/14 11:44:15;;;;;;;14.93;5.28;;;20.00;95.10;;;;;;4915482;29;20080;-80
2022/04/14 11:46:46;;;;;;;13.95;3.80;;;19.90;95.50;;;;;;4914520;29;20064;-80
2022/04/14 11:49:14;;;;;;;14.38;4.28;;;20.00;94.60;;;;;;4901459;29;20076;-80
2022/04/14 11:51:48;;;;;;;12.63;4.13;;;20.30;94.60;;;;;;4895724;29;20025;-80
2022/04/14 11:54:26;;;;;;;13.90;3.63;;;20.20;94.20;;;;;;4894206;29;20033;-80
2022/04/14 11:56:57;;;;;;;12.80;3.65;;;20.50;94.20;;;;;;4876213;29;20025;-80
2022/04/14 11:59:35;;;;;;;18.53;3.80;;;20.50;93.50;;;;;;4894734;29;20035;-80
2022/04/14 12:02:18;;;;;;;12.88;3.80;;;20.50;92.80;;;;;;4895513;29;20477;-80
2022/04/14 12:04:51;;;;;;;14.40;4.35;;;20.40;94.20;;;;;;4890225;29;20037;-80
2022/04/14 12:07:19;;;;;;;11.25;3.90;;;20.10;92.60;;;;;;4896683;29;20041;-80
2022/04/14 12:09:46;;;;;;;15.43;3.88;;;20.80;93.10;;;;;;4895279;29;20103;-81
2022/04/14 12:12:17;;;;;;;12.48;3.47;;;20.60;92.40;;;;;;4879302;29;20020;-77
2022/04/14 12:14:47;;;;;;;13.73;3.97;;;20.80;94.10;;;;;;4894814;29;20072;-81
2022/04/14 12:17:16;;;;;;;15.93;3.85;;;20.60;93.30;;;;;;4895714;29;20564;-81
2022/04/14 12:19:46;;;;;;;15.38;4.68;;;20.60;92.70;;;;;;4894040;29;20487;-81
2022/04/14 12:22:13;;;;;;;11.88;4.50;;;20.80;93.10;;;;;;4896783;29;20020;-81
2022/04/14 12:24:45;;;;;;;12.25;3.90;;;20.80;93.30;;;;;;4883993;29;20048;-81
2022/04/14 12:27:24;;;;;;;14.82;4.25;;;20.60;92.90;;;;;;4900247;29;20052;-81
2022/04/14 12:29:54;;;;;;;14.98;4.15;;;20.50;92.70;;;;;;4896415;29;20088;-80
2022/04/14 12:32:27;;;;;;;13.32;3.58;;;20.30;93.00;;;;;;4902413;29;20400;-81
2022/04/14 12:34:53;;;;;;;10.15;3.97;;;20.60;93.30;;;;;;4885385;29;20033;-81
2022/04/14 12:37:19;;;;;;;10.40;3.40;;;21.00;92.10;;;;;;4902517;29;20031;-81
2022/04/14 12:39:54;;;;;;;9.55;3.00;;;21.00;92.10;;;;;;4883780;29;20032;-81
2022/04/14 12:42:32;;;;;;;8.27;3.33;;;20.90;92.40;;;;;;4901044;29;20551;-81
2022/04/14 12:45:04;;;;;;;9.25;2.88;;;20.60;92.60;;;;;;4901081;29;20524;-81
2022/04/14 12:47:30;;;;;;;10.25;2.90;;;20.70;91.60;;;;;;4875434;29;20041;-82
2022/04/14 12:49:58;;;;;;;12.48;3.05;;;20.70;91.10;;;;;;4900397;29;20103;-82
2022/04/14 12:52:24;;;;;;;9.20;2.78;;;21.00;90.60;;;;;;4901688;29;20497;-81
2022/04/14 12:54:50;;;;;;;12.07;2.65;;;21.10;91.10;;;;;;4901551;29;20048;-81
2022/04/14 12:57:20;;;;;;;10.43;2.67;;;21.20;91.10;;;;;;4900785;29;20028;-81
2022/04/14 13:00:05;;;;;;;7.75;2.47;;;21.10;91.00;;;;;;4899511;29;20070;-81
2022/04/14 13:02:31;;;;;;;15.65;2.47;;;20.90;90.60;;;;;;4901522;29;20077;-81
2022/04/14 13:05:16;;;;;;;11.75;3.20;;;21.10;90.50;;;;;;4884881;29;20033;-81
2022/04/14 13:07:53;;;;;;;8.85;2.83;;;21.00;90.60;;;;;;4902351;29;20028;-81
2022/04/14 13:10:26;;;;;;;9.77;2.58;;;20.90;90.50;;;;;;4883649;29;20063;-81
2022/04/14 13:12:52;;;;;;;5.47;2.22;;;20.90;88.50;;;;;;4899376;29;20024;-81
2022/04/14 13:15:20;;;;;;;8.43;2.75;;;20.90;87.50;;;;;;4883877;29;20090;-84
2022/04/14 13:17:46;;;;;;;7.90;2.20;;;20.80;88.80;;;;;;4902257;29;20033;-81
2022/04/14 13:20:16;;;;;;;10.80;2.40;;;20.80;87.80;;;;;;4883928;29;20131;-82
2022/04/14 13:22:42;;;;;;;11.77;2.88;;;20.80;87.90;;;;;;4898260;29;20689;-83
2022/04/14 13:25:08;;;;;;;11.23;2.83;;;21.20;87.80;;;;;;4884059;29;20036;-83
2022/04/14 13:27:34;;;;;;;7.07;2.42;;;21.00;88.60;;;;;;4899750;29;20397;-83
2022/04/14 13:30:00;;;;;;;8.68;2.65;;;20.90;87.00;;;;;;4901187;29;20025;-82
2022/04/14 13:32:27;;;;;;;14.15;2.47;;;21.10;88.60;;;;;;4883032;29;20049;-84
2022/04/14 13:34:54;;;;;;;11.00;2.72;;;21.10;89.00;;;;;;4898430;29;20033;-84
2022/04/14 13:37:20;;;;;;;10.00;2.60;;;21.10;87.90;;;;;;4879085;29;20032;-83
2022/04/14 13:39:45;;;;;;;12.23;3.10;;;21.20;89.70;;;;;;4894096;29;20045;-85
2022/04/14 13:42:11;;;;;;;7.72;2.50;;;21.20;86.90;;;;;;4879201;29;20036;-86
2022/04/14 13:44:37;;;;;;;13.02;2.80;;;21.10;85.30;;;;;;4897657;29;20408;-84
2022/04/14 13:47:02;;;;;;;12.23;2.20;;;21.30;85.60;;;;;;4896175;29;20032;-83
2022/04/14 13:49:28;;;;;;;8.55;2.53;;;21.30;82.50;;;;;;4898490;29;20052;-83
2022/04/14 13:51:54;;;;;;;6.95;2.03;;;21.30;82.40;;;;;;4881149;29;20021;-83
2022/04/14 13:54:20;;;;;;;9.88;2.80;;;21.30;77.70;;;;;;4896374;29;20497;-84
2022/04/14 13:56:46;;;;;;;14.02;3.20;;;21.40;79.90;;;;;;4897919;29;20425;-84
2022/04/14 13:59:11;;;;;;;11.20;2.13;;;21.40;80.40;;;;;;4896255;29;20032;-83
2022/04/14 14:01:37;;;;;;;7.53;1.90;;;21.40;81.60;;;;;;4896042;29;20028;-84
2022/04/14 14:04:04;;;;;;;7.03;1.67;;;21.50;75.60;;;;;;4879196;29;20484;-83
2022/04/14 14:06:30;;;;;;;15.88;2.45;;;21.30;75.90;;;;;;4896615;29;20536;-84
2022/04/14 14:08:56;;;;;;;5.18;1.80;;;21.40;75.60;;;;;;4896339;29;20031;-82
2022/04/14 14:11:22;;;;;;;6.75;1.60;;;21.50;78.30;;;;;;4898217;29;20158;-84
2022/04/14 14:13:49;;;;;;;12.68;2.38;;;21.60;78.10;;;;;;4896405;29;20029;-84
2022/04/14 14:16:15;;;;;;;7.28;2.45;;;21.70;77.80;;;;;;4880888;29;20036;-83
2022/04/14 14:18:40;;;;;;;6.28;2.25;;;21.70;75.40;;;;;;4896751;29;20028;-84
2022/04/14 14:21:06;;;;;;;11.60;2.03;;;21.70;75.50;;;;;;4881193;29;20028;-84
2022/04/14 14:23:32;;;;;;;4.32;1.48;;;21.50;74.30;;;;;;4897996;29;20404;-85
2022/04/14 14:25:58;;;;;;;6.55;1.63;;;21.50;74.30;;;;;;4895326;29;20115;-84
2022/04/14 14:28:24;;;;;;;6.53;2.03;;;21.40;74.70;;;;;;4878690;29;20108;-84
2022/04/14 14:30:49;;;;;;;6.40;1.80;;;21.20;73.60;;;;;;4877392;29;20028;-84
2022/04/14 14:33:15;;;;;;;6.65;1.85;;;21.00;74.00;;;;;;4882007;29;20032;-84
2022/04/14 14:35:41;;;;;;;7.72;1.90;;;21.00;74.90;;;;;;4894225;29;20017;-84
2022/04/14 14:38:07;;;;;;;7.22;1.33;;;20.80;71.20;;;;;;4894299;29;20033;-85
2022/04/14 14:40:32;;;;;;;5.65;1.50;;;20.60;69.20;;;;;;4880045;29;20025;-84
2022/04/14 14:42:58;;;;;;;9.43;1.65;;;20.50;68.20;;;;;;4879325;29;20033;-83
2022/04/14 14:45:24;;;;;;;10.75;2.05;;;20.40;73.80;;;;;;4876663;29;20032;-84
2022/04/14 14:47:50;;;;;;;7.47;2.50;;;20.40;73.60;;;;;;4895805;29;20049;-84
2022/04/14 14:50:16;;;;;;;6.90;1.85;;;20.30;75.60;;;;;;4873971;29;20069;-85
2022/04/14 14:52:42;;;;;;;10.13;2.08;;;20.30;77.60;;;;;;4893057;29;20029;-84
2022/04/14 14:55:09;;;;;;;10.77;2.22;;;20.20;76.20;;;;;;4897915;29;20037;-84
2022/04/14 15:00:19;;;;;;;7.13;1.80;;;20.10;78.50;;;;;;4897032;29;20045;-90
2022/04/14 15:02:45;;;;;;;10.48;2.10;;;20.20;77.80;;;;;;4897390;29;20445;-84
2022/04/14 15:05:10;;;;;;;7.93;2.03;;;20.20;76.70;;;;;;4878677;29;20029;-85
2022/04/14 15:07:36;;;;;;;5.85;2.00;;;20.10;76.70;;;;;;4895037;29;20382;-86
2022/04/14 15:10:04;;;;;;;3.95;1.52;;;20.10;77.00;;;;;;4878746;29;20065;-81
2022/04/14 15:12:30;;;;;;;11.10;2.00;;;20.10;78.70;;;;;;4892756;29;20112;-86
2022/04/14 15:14:56;;;;;;;7.93;2.08;;;20.20;78.20;;;;;;4897921;29;20028;-83
2022/04/14 15:17:21;;;;;;;7.30;2.13;;;20.20;78.80;;;;;;4897795;29;20088;-81
2022/04/14 15:19:47;;;;;;;6.82;1.85;;;20.20;76.60;;;;;;4887027;29;20044;-82
2022/04/14 15:22:14;;;;;;;7.90;1.77;;;20.30;77.70;;;;;;4887913;29;20088;-82
2022/04/14 15:24:40;;;;;;;16.10;2.40;;;20.40;76.50;;;;;;4897306;29;20044;-84
2022/04/14 15:27:06;;;;;;;12.23;2.85;;;20.50;76.10;;;;;;4898266;29;20112;-83
2022/04/14 15:29:32;;;;;;;6.88;2.60;;;20.60;77.90;;;;;;4897528;29;20107;-83
2022/04/14 15:31:58;;;;;;;11.88;2.55;;;20.70;81.30;;;;;;4896924;29;20119;-83
2022/04/14 15:34:23;;;;;;;8.07;1.90;;;21.00;83.30;;;;;;4898041;29;20076;-83
2022/04/14 15:36:49;;;;;;;15.63;3.03;;;21.00;82.60;;;;;;4898069;29;20374;-83
2022/04/14 15:39:15;;;;;;;6.88;2.05;;;21.10;83.50;;;;;;4896742;29;20072;-83
2022/04/14 15:41:40;;;;;;;14.73;4.20;;;21.00;83.10;;;;;;4898108;29;20041;-83
2022/04/14 15:44:06;;;;;;;9.35;2.13;;;21.00;84.50;;;;;;4897615;29;20035;-83
2022/04/14 15:46:32;;;;;;;8.75;2.33;;;21.00;83.50;;;;;;4897514;29;20054;-83
2022/04/14 15:48:57;;;;;;;8.57;1.80;;;21.10;83.30;;;;;;4890088;29;20053;-83
2022/04/14 15:51:25;;;;;;;9.15;2.22;;;21.10;83.70;;;;;;4879255;29;20025;-83
2022/04/14 15:53:53;;;;;;;8.52;2.38;;;21.00;84.10;;;;;;4879281;29;20024;-83
2022/04/14 15:56:19;;;;;;;6.85;2.20;;;20.70;83.70;;;;;;4862270;29;20544;-83
2022/04/14 15:58:45;;;;;;;5.78;1.75;;;20.50;84.80;;;;;;4878534;29;20451;-83
2022/04/14 16:01:11;;;;;;;6.05;2.05;;;20.50;85.20;;;;;;4879098;29;20033;-83
2022/04/14 16:03:36;;;;;;;6.40;2.20;;;20.40;85.50;;;;;;4878999;29;20017;-83
2022/04/14 16:06:04;;;;;;;7.50;2.65;;;20.40;87.30;;;;;;4879976;29;20060;-84
2022/04/14 16:08:30;;;;;;;10.82;2.60;;;20.50;87.70;;;;;;4880857;29;20025;-84
2022/04/14 16:13:39;;;;;;;8.82;2.67;;;20.20;88.30;;;;;;4897927;29;20113;-79
2022/04/14 16:16:05;;;;;;;10.10;2.55;;;20.20;86.70;;;;;;4897854;29;20116;-79
2022/04/14 16:18:31;;;;;;;9.63;2.47;;;20.30;87.80;;;;;;4897308;29;20362;-82
2022/04/14 16:20:58;;;;;;;8.75;2.45;;;20.30;88.10;;;;;;4895256;29;20043;-81
2022/04/14 16:23:24;;;;;;;10.77;2.78;;;20.30;89.10;;;;;;4896998;29;20129;-78
2022/04/14 16:25:50;;;;;;;9.07;2.42;;;20.30;89.80;;;;;;4897688;29;20116;-78
2022/04/14 16:28:15;;;;;;;12.15;2.40;;;20.20;90.20;;;;;;4897693;29;20053;-78
2022/04/14 16:30:45;;;;;;;13.18;2.55;;;20.20;90.60;;;;;;4896957;29;20031;-76
2022/04/14 16:33:11;;;;;;;8.80;2.15;;;20.20;90.80;;;;;;4897381;29;20057;-77
2022/04/14 16:35:37;;;;;;;10.63;2.38;;;20.20;91.20;;;;;;4896714;29;20033;-76
2022/04/14 16:38:03;;;;;;;10.20;2.53;;;20.30;90.50;;;;;;4882926;29;20100;-75
2022/04/14 16:40:29;;;;;;;6.03;2.50;;;20.20;91.00;;;;;;4896794;29;20441;-78
2022/04/14 16:42:55;;;;;;;8.65;2.38;;;20.20;91.20;;;;;;4895575;29;20396;-80
2022/04/14 16:45:21;;;;;;;9.63;2.58;;;20.20;91.20;;;;;;4897009;29;20508;-78
2022/04/14 16:47:48;;;;;;;11.20;2.22;;;20.10;91.60;;;;;;4896693;29;20032;-77
2022/04/14 16:50:14;;;;;;;9.73;3.17;;;20.10;91.70;;;;;;4889378;29;20104;-79
2022/04/14 16:52:44;;;;;;;12.60;2.85;;;20.20;91.50;;;;;;4883430;29;20091;-77
2022/04/14 16:55:10;;;;;;;9.75;2.05;;;20.10;91.70;;;;;;4894509;29;20412;-78
2022/04/14 16:57:37;;;;;;;10.52;2.72;;;20.10;92.40;;;;;;4883438;29;20021;-77
2022/04/14 17:00:06;;;;;;;8.88;2.33;;;20.10;92.60;;;;;;4878517;29;20081;-75
2022/04/14 17:02:32;;;;;;;14.48;3.08;;;20.10;92.60;;;;;;4881388;29;20029;-75
2022/04/14 17:04:58;;;;;;;15.88;2.42;;;20.10;92.50;;;;;;4897285;29;20050;-76
2022/04/14 17:07:23;;;;;;;7.40;2.38;;;20.00;92.40;;;;;;4897327;29;20025;-76
2022/04/14 17:09:49;;;;;;;7.97;2.47;;;20.00;92.80;;;;;;4888845;29;20069;-75
2022/04/14 17:12:15;;;;;;;8.43;2.25;;;20.00;93.00;;;;;;4900878;29;20031;-75
2022/04/14 17:14:41;;;;;;;8.82;2.28;;;19.90;92.60;;;;;;4900417;29;20040;-77
2022/04/14 17:17:07;;;;;;;11.43;2.10;;;19.80;93.10;;;;;;4900584;29;20039;-77
2022/04/14 17:19:33;;;;;;;9.13;3.05;;;19.70;93.50;;;;;;4900683;29;20060;-76
2022/04/14 17:24:44;;;;;;;10.93;2.28;;;19.50;93.90;;;;;;4899859;29;20109;-80
2022/04/14 17:27:09;;;;;;;9.52;2.47;;;19.50;94.20;;;;;;4900029;29;20430;-79
2022/04/14 17:29:35;;;;;;;6.20;2.70;;;19.50;94.20;;;;;;4899116;29;20077;-80
2022/04/14 17:32:01;;;;;;;14.20;2.70;;;19.40;94.20;;;;;;4897397;29;20519;-78
2022/04/14 17:34:27;;;;;;;10.35;2.60;;;19.40;94.60;;;;;;4897892;29;20024;-76
2022/04/14 17:36:53;;;;;;;13.50;2.35;;;19.30;95.00;;;;;;4882559;29;20100;-76
2022/04/14 17:39:19;;;;;;;11.10;2.55;;;19.20;95.30;;;;;;4895130;29;20032;-79
2022/04/14 17:41:45;;;;;;;8.73;2.35;;;19.10;96.30;;;;;;4899554;29;20041;-80
2022/04/14 17:44:12;;;;;;;11.30;2.72;;;19.00;97.70;;;;;;4879908;29;20418;-77
2022/04/14 17:46:38;;;;;;;11.75;2.10;;;18.90;98.70;;;;;;4880809;29;20069;-85
2022/04/14 17:49:05;;;;;;;9.52;2.92;;;18.80;99.60;;;;;;4893409;29;20049;-84
2022/04/14 17:51:33;;;;;;;15.00;2.92;;;18.70;99.90;;;;;;4896907;29;20025;-84
2022/04/14 17:53:59;;;;;;;19.45;3.55;;;18.50;99.90;;;;;;4884038;29;20029;-86
2022/04/14 17:56:24;;;;;;;15.18;3.40;;;18.40;99.90;;;;;;4900829;29;20095;-93
2022/04/14 17:58:50;;;;;;;9.23;3.17;;;18.30;99.90;;;;;;4884805;29;20033;-90
2022/04/14 18:01:16;;;;;;;7.47;3.00;;;18.20;99.90;;;;;;4880378;29;20028;-90
2022/04/14 18:03:42;;;;;;;11.00;3.08;;;18.10;99.90;;;;;;4880848;29;20036;-92
2022/04/14 18:06:07;;;;;;;10.50;3.47;;;18.00;99.90;;;;;;4878879;29;20040;-87
2022/04/14 18:08:33;;;;;;;8.27;2.85;;;18.00;99.90;;;;;;4899808;29;20108;-92
2022/04/14 18:10:59;;;;;;;8.45;3.15;;;17.90;99.90;;;;;;4879504;29;20520;-90
2022/04/14 18:13:25;;;;;;;11.13;3.30;;;17.80;99.90;;;;;;4882553;29;20029;-95
2022/04/14 18:15:51;;;;;;;6.10;2.90;;;17.80;99.90;;;;;;4866392;29;20116;-89
2022/04/14 18:18:17;;;;;;;13.20;3.20;;;17.70;99.90;;;;;;4883619;29;20029;-89